Tiempo atmosférico en la estación meteorológica de Fraga, Huesca (170 m.)



Fecha
DESCASC
Temp. máxima en grados centígrados (hora)
DESCASC
Temp. mínima en grados centígrados (hora)
DESCASC
Temp. media en grados centígrados
DESCASC
Racha de viento máxima en m/sg (hora)
DESCASC
Velocidad máxima media en intervalos de 10 minutos(hora)
DESCASC
Precipitaciones diarias en mm
DESCASC
Precipitaciones de 00:00 a 06:00 en mm
DESCASC
Precipitaciones de 06:00 a 12:00 en mm
DESCASC
Precipitaciones de 12:00 a 18:00 en mm
DESCASC
Precipitaciones de 18:00 a 24:00 en mm
DESCASC
22-01-2020 9.5 (12:40) 4.5 (09:30) 7 11.67 (01:30) 8.06 (01:20) 27.8 0.6 0 10.4 16.8
21-01-2020 11.2 (19:40) 3.1 (04:00) 7.1 25.28 (15:30) 17.22 (15:30) 25.8 1.4 0.6 0 23.8
20-01-2020 5.7 (20:40) 1.2 (02:10) 3.4 7.22 (11:50) 4.17 (11:50) 0.4 0 0 0 0.4
19-01-2020 9.2 (15:20) 4.3 (00:00) 6.8 6.11 (01:00) 3.33 (11:50) 9 7.8 1.2 0 0
18-01-2020 11.7 (14:50) 3 (00:00) 7.3 8.06 (01:00) 4.44 (01:00) 0 0 0 0 0
17-01-2020 16.2 (15:20) 1.8 (00:00) 9 14.44 (16:10) 10 (14:00) 0 0 0 0 0
16-01-2020 8.2 (16:40) -0.6 (-00:0) 3.8 2.5 (14:10) 1.67 (14:00) 0.2 0 0.2 0 0
15-01-2020 1.8 (15:50) -0.8 (-00:0) 0.5 2.5 (00:30) 1.11 (02:20) 0.2 0 0.2 0 0
14-01-2020 1.5 (16:00) -1.1 (-00:0) 0.2 2.78 (02:40) 1.67 (00:40) 0.2 0 0.2 0 0
13-01-2020 1.4 (16:30) -0.2 (00:00) 0.6 3.33 (17:40) 1.94 (02:40) 0.2 0 0.2 0 0
12-01-2020 1.6 (15:50) -2.4 (-00:0) -0.4 3.33 (20:10) 1.67 (20:10) 0.2 0 0.2 0 0
11-01-2020 9.1 (17:10) -2.1 (-00:0) 3.5 4.17 (01:00) 2.5 (01:00) 0.2 0 0.2 0 0
10-01-2020 9.4 (15:30) 3.3 (00:00) 6.3 4.72 (03:50) 2.78 (10:50) 1.2 1.2 0 0 0
09-01-2020 4.8 (16:50) 2.6 (00:00) 3.7 3.89 (18:30) 2.22 (18:10) 0.2 0 0.2 0 0
08-01-2020 4.4 (15:50) 2.3 (00:00) 3.4 4.44 (11:10) 2.5 (11:20) 0 0 0 0 0
07-01-2020 3.8 (15:40) 2.7 (00:00) 3.3 3.89 (11:20) 2.5 (11:20) 0.2 0 0 0.2 0
06-01-2020 5.3 (15:50) 2 (00:00) 3.7 2.78 (23:30) 1.67 (22:50) 0 0 0 0 0
05-01-2020 5.7 (14:40) 3.5 (00:00) 4.6 5 (20:30) 3.33 (20:20) 0.2 0 0.2 0 0
04-01-2020 4.5 (15:40) 2.6 (00:00) 3.5 3.61 (19:00) 2.5 (19:00) 0.2 0 0.2 0 0
03-01-2020 3.5 (16:50) 1.2 (00:00) 2.4 5.83 (07:40) 4.17 (07:40) 0.2 0.2 0 0 0
02-01-2020 2.9 (16:20) 1.6 (00:00) 2.3 2.78 (02:20) 1.94 (02:20) 0.2 0 0 0 0.2
01-01-2020 3.8 (02:40) 2.5 (00:00) 3.1 5.28 (05:10) 3.06 (04:50) 0 0 0 0 0
31-12-2019 5 (15:00) 3.5 (00:00) 4.3 -- (--) -- (--) 0 0 0 0 0
30-12-2019 -- (--) -- (--) -- -- (--) -- (--) -- 0 0 0 --
29-12-2019 5.2 (15:20) 4 (00:00) 4.6 2.5 (01:10) 1.67 (01:10) 0.2 0 0.2 0 0
28-12-2019 5.7 (14:20) 4.3 (00:00) 5 3.33 (06:00) 2.22 (05:50) 0 0 0 0 0
27-12-2019 5.9 (15:50) 3.4 (00:00) 4.7 2.22 (14:50) 1.67 (08:50) 0.4 0.2 0.2 0 0

Gráficas

Temp. máximas Temp. mínimas Temp. medias Precipitaciones Rachas de viento máximas Velocidades máximas media en intervalos de 10 minutos

Datos horarios

Fecha y hora oficial Temperatura (ºC) Velocidad del viento (km/h) Dirección del viento Racha (km/h) Dirección de racha Precipitación (mm) Presión (hPa) Tendencia (hPa) Humedad (%)
2020-01-25 23:00:00 10.1 9 Este 12 Este 0 -- -- 88
2020-01-25 22:00:00 10.8 6 Sudeste 11 Sudeste 0 -- -- 87
2020-01-25 21:00:00 10.9 7 Este 14 Este 0 -- -- 85
2020-01-25 20:00:00 11.2 10 Nordeste 17 Nordeste 0 -- -- 81
2020-01-25 19:00:00 11.6 12 Nordeste 19 Nordeste 0 -- -- 80
2020-01-25 18:00:00 12 8 Nordeste 12 Nordeste 0 -- -- 79
2020-01-25 17:00:00 12.9 7 Este 13 Nordeste 0 -- -- 75
2020-01-25 16:00:00 13.1 4 Este 14 Nordeste 0 -- -- 74
2020-01-25 15:00:00 12.7 6 Este 11 Este 0 -- -- 76
2020-01-25 14:00:00 11.6 6 Nordeste 12 Nordeste 0 -- -- 81
2020-01-25 13:00:00 10 4 Nordeste 9 Este 0 -- -- 87
2020-01-25 12:00:00 8.1 3 Sudoeste 4 Sudoeste 0 -- -- 96
2020-01-25 11:00:00 6.4 0 Calma 3 Sur 0 -- -- 99
2020-01-25 10:00:00 5.8 0 Calma 5 Sur 0 -- -- 99
2020-01-25 09:00:00 5.3 0 Calma 5 Sur 0 -- -- 99
2020-01-25 08:00:00 5.3 3 Sur 5 Sur 0 -- -- 99
2020-01-25 07:00:00 5.3 0 Calma 4 Este 0 -- -- 98
2020-01-25 06:00:00 5.7 3 Sur 4 Sudoeste 0 -- -- 99
2020-01-25 05:00:00 5.4 3 Sur 4 Sur 0 -- -- 98
2020-01-25 04:00:00 5.9 0 Calma 3 Sudoeste 0 -- -- 98
2020-01-25 03:00:00 6.2 2 Sur 3 Sur 0 -- -- 98
2020-01-25 02:00:00 6.1 0 Calma 3 Nordeste 0 -- -- 98
2020-01-25 01:00:00 6.2 0 Calma 3 Sudoeste 0 -- -- 97
2020-01-25 00:00:00 6.4 0 Calma 4 Sur 0 -- -- 97
2020-01-24 23:00:00 6.7 0 Calma 4 Nordeste 0 -- -- 95
2020-01-24 22:00:00 7.2 2 Sudoeste 5 Sur 0 -- -- 94
2020-01-24 21:00:00 7.5 4 Sudoeste 5 Sudoeste 0 -- -- 92
2020-01-24 20:00:00 8.1 2 Sudeste 8 Sudeste 0 -- -- 90
2020-01-24 19:00:00 8.4 2 Sudeste 6 Sudeste 0 -- -- 89
2020-01-24 18:00:00 9.2 4 Sur 6 Sur 0 -- -- 87
2020-01-24 17:00:00 10.6 3 Sur 8 Sur 0 -- -- 86
2020-01-24 16:00:00 10.2 4 Sur 10 Sudoeste 0 -- -- 86
2020-01-24 15:00:00 9.3 5 Sur 11 Sudoeste 0 -- -- 92
2020-01-24 14:00:00 7.5 2 Sur 6 Sudoeste 0 -- -- 100
2020-01-24 13:00:00 5.8 3 Sudoeste 7 Sudoeste 0 -- -- 100
2020-01-24 12:00:00 5.1 0 Calma 5 Sur 0 -- -- 100
2020-01-24 11:00:00 3.9 0 Calma 3 Oeste 0 -- -- 100
2020-01-24 10:00:00 3 0 Calma 3 Nordeste 0 -- -- 99
2020-01-24 09:00:00 2.5 2 Nordeste 6 Sudoeste 0 -- -- 99
2020-01-24 08:00:00 2.4 0 Calma 7 Sur 0 -- -- 99
2020-01-24 07:00:00 2.9 0 Calma 3 Sur 0 -- -- 97
2020-01-24 06:00:00 3.8 0 Calma 5 Noroeste 0 -- -- 98
2020-01-24 05:00:00 4 0 Calma 3 Sudoeste 0 -- -- 97
2020-01-24 04:00:00 4.7 0 Calma 3 Oeste 0 -- -- 97
2020-01-24 03:00:00 5.5 0 Calma 6 Nordeste 0 -- -- 96
2020-01-24 02:00:00 5.9 0 Calma 6 Nordeste 0 -- -- 96
2020-01-24 01:00:00 6.2 0 Calma 7 Sudeste 0 -- -- 95
2020-01-24 00:00:00 6.3 0 Calma 6 Oeste 0 -- -- 96
2020-01-23 23:00:00 6.1 3 Noroeste 10 Oeste 0 -- -- 94
2020-01-23 22:00:00 7 2 Oeste 8 Oeste 0 -- -- 91
2020-01-23 21:00:00 7.8 2 Norte 6 Este 0 -- -- 88
2020-01-23 20:00:00 7.9 2 Sudoeste 14 Nordeste 0 -- -- 88
2020-01-23 19:00:00 8.6 12 Nordeste 15 Nordeste 0 -- -- 85
2020-01-23 18:00:00 8.9 9 Nordeste 15 Nordeste 0 -- -- 84
2020-01-23 17:00:00 9.8 12 Nordeste 18 Nordeste 0 -- -- 82
2020-01-23 16:00:00 10.4 8 Nordeste 15 Nordeste 0 -- -- 79
2020-01-23 15:00:00 9.6 6 Nordeste 14 Este 0 -- -- 87
2020-01-23 14:00:00 9.7 6 Nordeste 14 Nordeste 0.2 -- -- 88
2020-01-23 13:00:00 8.3 3 Nordeste 8 Sudeste 0 -- -- 98
2020-01-23 12:00:00 7.3 4 Este 10 Sur 0.2 -- -- 98
2020-01-23 11:00:00 6.6 4 Nordeste 8 Nordeste 2.8 -- -- 98
2020-01-23 10:00:00 6.4 0 Calma 7 Sudeste 0.6 -- -- 98
2020-01-23 09:00:00 6.4 4 Sudoeste 13 Sudoeste 1 -- -- 98
2020-01-23 08:00:00 6.2 5 Sudoeste 14 Sudoeste 0.6 -- -- 99
2020-01-23 07:00:00 6.2 2 Sudoeste 3 Sudoeste 0.2 -- -- 99
2020-01-23 06:00:00 6.1 0 Calma 8 Oeste 1.2 -- -- 99
2020-01-23 05:00:00 6.2 3 Sudoeste 10 Sudoeste 5.4 -- -- 99
2020-01-23 04:00:00 6.3 4 Oeste 9 Sudoeste 4.2 -- -- 99
2020-01-23 03:00:00 6.4 0 Calma 7 Oeste 6.6 -- -- 99
2020-01-23 02:00:00 6.5 0 Calma 8 Sudeste 4 -- -- 98
2020-01-23 01:00:00 6.7 4 Noroeste 14 Oeste 1 -- -- 98
2020-01-23 00:00:00 6.7 6 Noroeste 16 Noroeste 2 -- -- 99
2020-01-22 23:00:00 6.8 8 Noroeste 15 Noroeste 2.6 -- -- 99
2020-01-22 22:00:00 7 12 Noroeste 23 Noroeste 2.4 -- -- 99
2020-01-22 21:00:00 7.6 15 Noroeste 23 Noroeste 3 -- -- 98
2020-01-22 20:00:00 7.8 14 Noroeste 30 Noroeste 3.2 -- -- 98
2020-01-22 19:00:00 7.8 8 Norte 17 Noroeste 3.6 -- -- 98
2020-01-22 18:00:00 7.8 3 Sudoeste 10 Noroeste 0.6 -- -- 98
2020-01-22 17:00:00 7.6 0 Calma 5 Sudoeste 1 -- -- 98
2020-01-22 16:00:00 7.4 4 Oeste 13 Noroeste 5.4 -- -- 97
2020-01-22 15:00:00 7.7 4 Este 16 Sudeste 3.4 -- -- 95
2020-01-22 14:00:00 8.4 4 Sur 11 Sudeste 0 -- -- 91
2020-01-22 13:00:00 9.2 4 Sudoeste 8 Sudeste 0 -- -- 84
2020-01-22 12:00:00 8.4 4 Sur 9 Oeste 0 -- -- 90
2020-01-22 11:00:00 5.9 2 Oeste 5 Sudoeste 0 -- -- 96
2020-01-22 10:00:00 4.8 4 Sur 8 Sur 0 -- -- 97
2020-01-22 09:00:00 4.7 0 Calma 5 Oeste 0 -- -- 96
2020-01-22 08:00:00 5.2 0 Calma 6 Noroeste 0 -- -- 96
2020-01-22 07:00:00 5.7 4 Noroeste 8 Noroeste 0 -- -- 95
2020-01-22 06:00:00 6.2 0 Calma 7 Noroeste 0 -- -- 95
2020-01-22 05:00:00 6.8 2 Norte 8 Nordeste 0 -- -- 92
2020-01-22 04:00:00 7.5 3 Sudeste 19 Nordeste 0 -- -- 91
2020-01-22 03:00:00 7.6 12 Nordeste 19 Nordeste 0 -- -- 92
2020-01-22 02:00:00 7.4 6 Nordeste 42 Nordeste 0.2 -- -- 94
2020-01-22 01:00:00 7.8 19 Nordeste 32 Nordeste 0.4 -- -- 94
2020-01-22 00:00:00 7.8 24 Nordeste 33 Nordeste 7.6 -- -- 95
2020-01-21 23:00:00 8 2 Este 30 Sudeste 11.4 -- -- 95
2020-01-21 22:00:00 9.6 18 Sudeste 49 Nordeste 4.8 -- -- 87
2020-01-21 21:00:00 11 30 Nordeste 50 Nordeste 0 -- -- 78
2020-01-21 20:00:00 11.1 32 Nordeste 66 Nordeste 0 -- -- 75
2020-01-21 19:00:00 10.8 48 Nordeste 78 Nordeste 0 -- -- 74
2020-01-21 18:00:00 10.8 33 Nordeste 66 Nordeste 0 -- -- 76
2020-01-21 17:00:00 10.5 40 Nordeste 79 Nordeste 0 -- -- 77
2020-01-21 16:00:00 10.5 49 Nordeste 91 Nordeste 0 -- -- 74
2020-01-21 15:00:00 10.4 57 Nordeste 86 Nordeste 0 -- -- 75
2020-01-21 14:00:00 10.3 52 Nordeste 83 Nordeste 0 -- -- 75
2020-01-21 13:00:00 9.7 40 Nordeste 62 Nordeste 0 -- -- 79
2020-01-21 12:00:00 8.9 38 Nordeste 71 Nordeste 0 -- -- 81
2020-01-21 11:00:00 8.2 48 Nordeste 68 Nordeste 0.4 -- -- 82
2020-01-21 10:00:00 8 41 Nordeste 64 Nordeste 0 -- -- 80
2020-01-21 09:00:00 8 37 Nordeste 61 Nordeste 0.2 -- -- 79
2020-01-21 08:00:00 7.9 35 Nordeste 56 Nordeste 0 -- -- 76
2020-01-21 07:00:00 6.3 24 Nordeste 37 Nordeste 0 -- -- 86
2020-01-21 06:00:00 3.2 5 Norte 17 Noroeste 0 -- -- 93
2020-01-21 05:00:00 4.7 11 Noroeste 34 Nordeste 0.8 -- -- 86
2020-01-21 04:00:00 3.1 7 Noroeste 14 Noroeste 0.2 -- -- 92
2020-01-21 03:00:00 3.3 8 Noroeste 19 Noroeste 0.4 -- -- 88
2020-01-21 02:00:00 3.9 10 Noroeste 18 Noroeste 0 -- -- 83
2020-01-21 01:00:00 3.8 13 Noroeste 20 Noroeste 0 -- -- 84
2020-01-21 00:00:00 4.3 8 Noroeste 21 Norte 0 -- -- 84
2020-01-20 23:00:00 4.5 11 Norte 21 Noroeste 0 -- -- 84
2020-01-20 22:00:00 5.1 8 Norte 19 Norte 0.4 -- -- 79
2020-01-20 21:00:00 5.6 7 Norte 18 Norte 0 -- -- 74
2020-01-20 20:00:00 5 4 Noroeste 10 Noroeste 0 -- -- 85
2020-01-20 19:00:00 4.3 3 Noroeste 5 Noroeste 0 -- -- 89
2020-01-20 18:00:00 4.2 5 Sur 9 Sur 0 -- -- 87
2020-01-20 17:00:00 5.1 3 Sur 5 Sur 0 -- -- 84
2020-01-20 16:00:00 4.6 3 Sudoeste 12 Sur 0 -- -- 85
2020-01-20 15:00:00 4.9 3 Oeste 8 Oeste 0 -- -- 82
2020-01-20 14:00:00 4.5 3 Oeste 14 Noroeste 0 -- -- 80
2020-01-20 13:00:00 3.8 9 Noroeste 19 Noroeste 0 -- -- 74
2020-01-20 12:00:00 3.8 14 Noroeste 26 Noroeste 0 -- -- 73
2020-01-20 11:00:00 2.9 13 Noroeste 18 Noroeste 0 -- -- 79
2020-01-20 10:00:00 2.9 9 Oeste 13 Sudoeste 0 -- -- 80
2020-01-20 09:00:00 2.7 5 Noroeste 19 Sudoeste 0 -- -- 81
2020-01-20 08:00:00 2.3 8 Sudoeste 12 Sudoeste 0 -- -- 82
2020-01-20 07:00:00 2.1 5 Sur 14 Sur 0 -- -- 84
2020-01-20 06:00:00 1.9 6 Sur 12 Sur 0 -- -- 86
2020-01-20 05:00:00 1.5 0 Calma 6 Sudeste 0 -- -- 87
2020-01-20 04:00:00 1.2 0 Calma 4 Noroeste 0 -- -- 91
2020-01-20 03:00:00 1.3 0 Calma 5 Noroeste 0 -- -- 94
2020-01-20 02:00:00 1.3 2 Oeste 6 Sudoeste 0 -- -- 98
2020-01-20 01:00:00 3.1 2 Noroeste 8 Oeste 0 -- -- 98
2020-01-20 00:00:00 4.6 4 Noroeste 8 Noroeste 0 -- -- 98
2020-01-19 23:00:00 5.1 3 Noroeste 11 Noroeste 0 -- -- 98
2020-01-19 22:00:00 4.9 4 Oeste 8 Oeste 0 -- -- 96
2020-01-19 21:00:00 5.4 0 Calma 6 Este 0 -- -- 93
2020-01-19 20:00:00 6.6 5 Este 10 Sudeste 0 -- -- 92
2020-01-19 19:00:00 7.6 3 Sudeste 12 Sudeste 0 -- -- 90
2020-01-19 18:00:00 8.4 5 Sur 11 Sur 0 -- -- 90
2020-01-19 17:00:00 9.1 6 Sur 14 Sur 0 -- -- 91
2020-01-19 16:00:00 9.1 9 Sur 17 Sudeste 0 -- -- 90
2020-01-19 15:00:00 8.7 10 Sudeste 15 Sudeste 0 -- -- 93
2020-01-19 14:00:00 8.7 4 Sudoeste 15 Noroeste 0 -- -- 94
2020-01-19 13:00:00 7.8 9 Noroeste 13 Oeste 0 -- -- 97
2020-01-19 12:00:00 7.2 11 Noroeste 19 Noroeste 0 -- -- 98
2020-01-19 11:00:00 6.7 6 Oeste 9 Oeste 0 -- -- 98
2020-01-19 10:00:00 6.3 0 Calma 8 Sur 0.8 -- -- 98
2020-01-19 09:00:00 6.3 3 Sudeste 6 Sudeste 0 -- -- 97
2020-01-19 08:00:00 6.3 0 Calma 7 Sudeste 0.2 -- -- 96
2020-01-19 07:00:00 6.4 3 Sudeste 9 Sudeste 0.2 -- -- 95
2020-01-19 06:00:00 6.4 3 Sudeste 11 Sur 1.4 -- -- 95
2020-01-19 05:00:00 6.6 4 Sur 13 Sudoeste 1.6 -- -- 94
2020-01-19 04:00:00 7 4 Sur 10 Sudoeste 0.6 -- -- 95
2020-01-19 03:00:00 7.1 4 Nordeste 9 Norte 3.2 -- -- 93
2020-01-19 02:00:00 7.4 6 Este 15 Sudoeste 1 -- -- 90
2020-01-19 01:00:00 8.2 11 Este 22 Nordeste 0 -- -- 82
2020-01-19 00:00:00 8 5 Este 15 Este 0 -- -- 82
2020-01-18 23:00:00 8.4 5 Nordeste 13 Nordeste 0 -- -- 76
2020-01-18 22:00:00 8.3 4 Este 9 Este 0 -- -- 77
2020-01-18 21:00:00 9 4 Oeste 17 Nordeste 0 -- -- 75
2020-01-18 20:00:00 9.5 12 Nordeste 17 Nordeste 0 -- -- 69
2020-01-18 19:00:00 10 5 Nordeste 11 Nordeste 0 -- -- 64
2020-01-18 18:00:00 10.3 4 Este 9 Nordeste 0 -- -- 63
2020-01-18 17:00:00 11 6 Nordeste 12 Este 0 -- -- 61
2020-01-18 16:00:00 11.4 9 Este 17 Nordeste 0 -- -- 59
2020-01-18 15:00:00 11.6 9 Nordeste 14 Este 0 -- -- 59
2020-01-18 14:00:00 10.8 6 Nordeste 12 Este 0 -- -- 62
2020-01-18 13:00:00 9.2 5 Este 14 Nordeste 0 -- -- 67
2020-01-18 12:00:00 6 2 Noroeste 8 Nordeste 0 -- -- 78
2020-01-18 11:00:00 4.1 0 Calma 4 Oeste 0 -- -- 86
2020-01-18 10:00:00 3.3 0 Calma 6 Este 0 -- -- 87
2020-01-18 09:00:00 3 2 Este 6 Sur 0 -- -- 89
2020-01-18 08:00:00 3.5 0 Calma 5 Este 0 -- -- 86
2020-01-18 07:00:00 4.5 2 Este 6 Este 0 -- -- 83
2020-01-18 06:00:00 4.6 3 Sudoeste 8 Sudoeste 0 -- -- 81
2020-01-18 05:00:00 4.8 0 Calma 8 Nordeste 0 -- -- 79
2020-01-18 04:00:00 4.6 2 Nordeste 8 Sudoeste 0 -- -- 78
2020-01-18 03:00:00 5.3 4 Sur 17 Sur 0 -- -- 75
2020-01-18 02:00:00 6.1 7 Sur 25 Noroeste 0 -- -- 70
2020-01-18 01:00:00 6.8 16 Noroeste 29 Oeste 0 -- -- 65
2020-01-18 00:00:00 7.2 3 Sudoeste 34 Oeste 0 -- -- 63
2020-01-17 23:00:00 8.1 15 Oeste 28 Oeste 0 -- -- 63
2020-01-17 22:00:00 9 21 Oeste 30 Oeste 0 -- -- 61
2020-01-17 21:00:00 9.2 12 Oeste 31 Noroeste 0 -- -- 59
2020-01-17 20:00:00 10.2 20 Noroeste 30 Oeste 0 -- -- 56
2020-01-17 19:00:00 11.2 15 Oeste 43 Noroeste 0 -- -- 57
2020-01-17 18:00:00 11.9 23 Oeste 36 Oeste 0 -- -- 57
2020-01-17 17:00:00 13.4 27 Oeste 52 Noroeste 0 -- -- 55
2020-01-17 16:00:00 14.3 29 Noroeste 48 Oeste 0 -- -- 57
2020-01-17 15:00:00 15.8 30 Oeste 46 Noroeste 0 -- -- 53
2020-01-17 14:00:00 15.1 36 Oeste 49 Oeste 0 -- -- 58
2020-01-17 13:00:00 9.9 4 Norte 8 Norte 0 -- -- 87
2020-01-17 12:00:00 7.3 3 Sudoeste 6 Sur 0 -- -- 100
2020-01-17 11:00:00 4.7 0 Calma 6 Oeste 0 -- -- 100
2020-01-17 10:00:00 3.5 3 Nordeste 8 Sur 0 -- -- 100
2020-01-17 09:00:00 2.6 0 Calma 3 Este 0 -- -- 100
2020-01-17 08:00:00 2.4 0 Calma 5 Sur 0 -- -- 100
2020-01-17 07:00:00 2.3 0 Calma 13 Sur 0 -- -- 100
2020-01-17 06:00:00 2.6 2 Sur 8 Norte 0 -- -- 100
2020-01-17 05:00:00 2.4 3 Nordeste 8 Noroeste 0 -- -- 100
2020-01-17 04:00:00 2 3 Noroeste 7 Noroeste 0 -- -- 99
2020-01-17 03:00:00 1.9 2 Oeste 5 Noroeste 0 -- -- 98
2020-01-17 02:00:00 2.4 3 Noroeste 6 Noroeste 0 -- -- 98
2020-01-17 01:00:00 2.5 0 Calma 6 Sudoeste 0 -- -- 96
2020-01-17 00:00:00 3.8 0 Calma 5 Noroeste 0 -- -- 96
2020-01-16 23:00:00 3.4 0 Calma 7 Noroeste 0 -- -- 95
2020-01-16 22:00:00 4 2 Noroeste 5 Noroeste 0 -- -- 93
2020-01-16 21:00:00 4.9 0 Calma 5 Nordeste 0 -- -- 91
2020-01-16 20:00:00 4.9 2 Nordeste 5 Nordeste 0 -- -- 91
2020-01-16 19:00:00 5.5 0 Calma 4 Sur 0 -- -- 89
2020-01-16 18:00:00 6.8 2 Sur 5 Sur 0 -- -- 84
2020-01-16 17:00:00 8.2 3 Sur 8 Sur 0 -- -- 80
2020-01-16 16:00:00 7.3 4 Sur 6 Sur 0 -- -- 90
2020-01-16 15:00:00 4.5 0 Calma 9 Sur 0 -- -- 100
2020-01-16 14:00:00 2.4 6 Sudeste 9 Sudeste 0 -- -- 100
2020-01-16 13:00:00 1.7 2 Oeste 5 Noroeste 0 -- -- 100
2020-01-16 12:00:00 0.6 2 Oeste 5 Noroeste 0 -- -- 100
2020-01-16 11:00:00 -0.2 3 Oeste 8 Noroeste 0 -- -- 100
2020-01-16 10:00:00 -0.4 3 Oeste 6 Noroeste 0.2 -- -- 100
2020-01-16 09:00:00 -0.3 3 Noroeste 6 Noroeste 0 -- -- 100
2020-01-16 08:00:00 -0.6 2 Nordeste 6 Nordeste 0 -- -- 100
2020-01-16 07:00:00 -0.4 3 Nordeste 8 Nordeste 0 -- -- 100
2020-01-16 06:00:00 -0.2 3 Norte 5 Norte 0 -- -- 100
2020-01-16 05:00:00 0.1 2 Noroeste 7 Nordeste 0 -- -- 100
2020-01-16 04:00:00 0.2 2 Nordeste 6 Nordeste 0 -- -- 100
2020-01-16 03:00:00 0.4 3 Noroeste 6 Noroeste 0 -- -- 100
2020-01-16 02:00:00 0.7 0 Calma 5 Norte 0 -- -- 100
2020-01-16 01:00:00 0.9 4 Norte 7 Nordeste 0 -- -- 100
2020-01-16 00:00:00 1.1 3 Nordeste 6 Norte 0 -- -- 100
2020-01-15 23:00:00 1.1 0 Calma 5 Noroeste 0 -- -- 100
2020-01-15 22:00:00 1.1 2 Nordeste 5 Este 0 -- -- 100
2020-01-15 21:00:00 1 2 Oeste 6 Noroeste 0 -- -- 100
2020-01-15 20:00:00 1.1 3 Este 8 Este 0 -- -- 100
2020-01-15 19:00:00 1.4 2 Sudoeste 5 Este 0 -- -- 100
2020-01-15 18:00:00 1.4 0 Calma 8 Sudeste 0 -- -- 100
2020-01-15 17:00:00 1.7 0 Calma 9 Sur 0 -- -- 100
2020-01-15 16:00:00 1.8 0 Calma 5 Noroeste 0 -- -- 100
2020-01-15 15:00:00 1.3 2 Noroeste 7 Noroeste 0 -- -- 100
2020-01-15 14:00:00 0.8 0 Calma 6 Oeste 0 -- -- 100
2020-01-15 13:00:00 0.5 2 Noroeste 6 Oeste 0 -- -- 100
2020-01-15 12:00:00 0.1 2 Oeste 8 Noroeste 0.2 -- -- 100
2020-01-15 11:00:00 -0.3 3 Noroeste 6 Noroeste 0 -- -- 100
2020-01-15 10:00:00 -0.6 4 Nordeste 8 Nordeste 0 -- -- 100
2020-01-15 09:00:00 -0.7 3 Nordeste 7 Nordeste 0 -- -- 100
2020-01-15 08:00:00 -0.8 3 Norte 7 Nordeste 0 -- -- 100
2020-01-15 07:00:00 -0.8 3 Norte 6 Nordeste 0 -- -- 100
2020-01-15 06:00:00 -0.8 0 Calma 5 Norte 0 -- -- 100
2020-01-15 05:00:00 -0.8 0 Calma 5 Sudoeste 0 -- -- 100
2020-01-15 04:00:00 -0.5 0 Calma 8 Noroeste 0 -- -- 100
2020-01-15 03:00:00 -0.4 2 Sudoeste 6 Nordeste 0 -- -- 100
2020-01-15 02:00:00 -0.4 2 Nordeste 6 Oeste 0 -- -- 100
2020-01-15 01:00:00 -0.2 3 Oeste 9 Noroeste 0 -- -- 100
2020-01-15 00:00:00 -0.1 4 Noroeste 8 Norte 0 -- -- 100
2020-01-14 23:00:00 0.3 5 Oeste 9 Oeste 0 -- -- 100
2020-01-14 22:00:00 0.6 3 Oeste 7 Oeste 0 -- -- 100
2020-01-14 21:00:00 0.8 5 Oeste 8 Oeste 0 -- -- 100
2020-01-14 20:00:00 1 2 Norte 5 Noroeste 0 -- -- 100
2020-01-14 19:00:00 1 2 Oeste 6 Norte 0 -- -- 100
2020-01-14 18:00:00 1.3 3 Nordeste 6 Nordeste 0 -- -- 100
2020-01-14 17:00:00 1.4 2 Sudeste 5 Este 0 -- -- 100
2020-01-14 16:00:00 1.5 0 Calma 6 Nordeste 0 -- -- 100
2020-01-14 15:00:00 1.1 3 Nordeste 10 Este 0 -- -- 100
2020-01-14 14:00:00 0.8 3 Nordeste 8 Nordeste 0 -- -- 100
2020-01-14 13:00:00 0.3 2 Este 8 Nordeste 0 -- -- 100
2020-01-14 12:00:00 0 3 Nordeste 6 Norte 0.2 -- -- 100
2020-01-14 11:00:00 -0.6 0 Calma -- -- 0 -- -- 100
2020-01-14 10:00:00 -0.8 0 Calma -- -- 0 -- -- 100
2020-01-14 09:00:00 -1 0 Calma -- -- 0 -- -- 100
2020-01-14 08:00:00 -1 0 Calma -- -- 0 -- -- 100
2020-01-14 07:00:00 -1 0 Calma -- -- 0 -- -- 100
2020-01-14 06:00:00 -0.8 0 Calma -- -- 0 -- -- 100
2020-01-14 05:00:00 -0.8 0 Calma -- -- 0 -- -- 100
2020-01-14 04:00:00 -0.8 0 Calma 8 Oeste 0 -- -- 100
2020-01-14 03:00:00 -0.5 2 Sudoeste 10 Sur 0 -- -- 100
2020-01-14 02:00:00 -0.3 2 Noroeste 5 Oeste 0 -- -- 100
2020-01-14 01:00:00 -0.2 0 Calma 9 Noroeste 0 -- -- 100
2020-01-14 00:00:00 0.2 6 Noroeste 11 Noroeste 0 -- -- 100
2020-01-13 23:00:00 0.4 3 Noroeste 7 Nordeste 0 -- -- 100
2020-01-13 22:00:00 0.5 2 Nordeste 7 Nordeste 0 -- -- 100
2020-01-13 21:00:00 0.7 4 Nordeste 9 Norte 0 -- -- 100
2020-01-13 20:00:00 0.8 4 Norte 8 Norte 0 -- -- 100
2020-01-13 19:00:00 0.9 2 Sur 7 Sudeste 0 -- -- 100
2020-01-13 18:00:00 1.3 0 Calma 12 Oeste 0 -- -- 100
2020-01-13 17:00:00 1.4 0 Calma 6 Sur 0 -- -- 100
2020-01-13 16:00:00 1.3 0 Calma 9 Noroeste 0 -- -- 100
2020-01-13 15:00:00 1.2 0 Calma 9 Nordeste 0 -- -- 100
2020-01-13 14:00:00 1 0 Calma 8 Nordeste 0 -- -- 100
2020-01-13 13:00:00 0.7 0 Calma 10 Nordeste 0 -- -- 100
2020-01-13 12:00:00 0.5 0 Calma 9 Nordeste 0 -- -- 100
2020-01-13 11:00:00 0.2 0 Calma 8 Este 0 -- -- 100
2020-01-13 10:00:00 -0.1 3 Nordeste 10 Nordeste 0 -- -- 100
2020-01-13 09:00:00 0.1 3 Sudeste 5 Sudeste 0 -- -- 100
2020-01-13 08:00:00 -0.1 0 Calma 6 Norte 0 -- -- 100
2020-01-13 07:00:00 -0.1 4 Oeste 6 Oeste 0.2 -- -- 100
2020-01-13 06:00:00 -0.1 2 Noroeste 9 Noroeste 0 -- -- 100
2020-01-13 05:00:00 0 3 Noroeste 6 Noroeste 0 -- -- 100
2020-01-13 04:00:00 0.1 3 Noroeste 6 Noroeste 0 -- -- 100
2020-01-13 03:00:00 0.2 3 Nordeste 10 Oeste 0 -- -- 100
2020-01-13 02:00:00 0.6 4 Oeste 7 Noroeste 0 -- -- 100
2020-01-13 01:00:00 0.9 5 Noroeste 10 Noroeste 0 -- -- 100
2020-01-13 00:00:00 1.1 2 Nordeste 8 Norte 0 -- -- 100
2020-01-12 23:00:00 1.3 2 Nordeste 8 Norte 0 -- -- 100
2020-01-12 22:00:00 1.3 0 Calma 9 Noroeste 0 -- -- 100
2020-01-12 21:00:00 1.2 4 Noroeste 12 Noroeste 0 -- -- 100
2020-01-12 20:00:00 1.3 5 Noroeste 12 Noroeste 0 -- -- 100
2020-01-12 19:00:00 1.3 3 Noroeste 10 Noroeste 0 -- -- 100
2020-01-12 18:00:00 1.4 4 Oeste 9 Oeste 0 -- -- 100
2020-01-12 17:00:00 1.4 4 Oeste 7 Noroeste 0 -- -- 100
2020-01-12 16:00:00 1.4 3 Norte 7 Oeste 0 -- -- 100
2020-01-12 15:00:00 1.3 3 Sur 8 Oeste 0 -- -- 100
2020-01-12 14:00:00 0.8 4 Oeste 7 Oeste 0 -- -- 100
2020-01-12 13:00:00 0.2 2 Oeste 6 Oeste 0 -- -- 100
2020-01-12 12:00:00 -0.2 3 Noroeste 6 Noroeste 0.2 -- -- 100
2020-01-12 11:00:00 -0.6 0 Calma 6 Nordeste 0 -- -- 100
2020-01-12 10:00:00 -1.2 0 Calma 5 Nordeste 0 -- -- 100
2020-01-12 09:00:00 -1.3 0 Calma 5 Norte 0 -- -- 99
2020-01-12 08:00:00 -1.4 0 Calma 4 Norte 0 -- -- 99
2020-01-12 07:00:00 -1.7 2 Noroeste 5 Oeste 0 -- -- 99
2020-01-12 06:00:00 -2.1 0 Calma 3 Oeste 0 -- -- 99
2020-01-12 05:00:00 -2.3 0 Calma 3 Noroeste 0 -- -- 98
2020-01-12 04:00:00 -2.4 0 Calma 2 Oeste 0 -- -- 97
2020-01-12 03:00:00 -1 0 Calma 2 Oeste 0 -- -- 96
2020-01-12 02:00:00 0 0 Calma 0 Calma 0 -- -- 96
2020-01-12 01:00:00 1.1 0 Calma 2 Este 0 -- -- 96
2020-01-12 00:00:00 1.3 0 Calma 3 Oeste 0 -- -- 94
2020-01-11 23:00:00 2.3 0 Calma 4 Nordeste 0 -- -- 91
2020-01-11 22:00:00 3.3 2 Nordeste 6 Sudeste 0 -- -- 90
2020-01-11 21:00:00 3.8 2 Noroeste 8 Este 0 -- -- 89
2020-01-11 20:00:00 4.9 4 Este 13 Este 0 -- -- 88
2020-01-11 19:00:00 6 4 Nordeste 9 Norte 0 -- -- 86
2020-01-11 18:00:00 7.7 0 Calma 4 Oeste 0 -- -- 82
2020-01-11 17:00:00 9 4 Oeste 6 Oeste 0 -- -- 80
2020-01-11 16:00:00 8.1 5 Oeste 8 Oeste 0 -- -- 88
2020-01-11 15:00:00 6.3 5 Oeste 9 Oeste 0 -- -- 100
2020-01-11 14:00:00 4.4 5 Oeste 9 Oeste 0 -- -- 100
2020-01-11 13:00:00 3.5 3 Oeste 6 Noroeste 0 -- -- 100
2020-01-11 12:00:00 1.9 3 Norte 6 Noroeste 0 -- -- 100
2020-01-11 11:00:00 -0.1 2 Norte 5 Noroeste 0.2 -- -- 100
2020-01-11 10:00:00 -1 0 Calma 3 Oeste 0 -- -- 100
2020-01-11 09:00:00 -2.1 4 Noroeste 7 Norte 0 -- -- 99
2020-01-11 08:00:00 -1.8 0 Calma 3 Norte 0 -- -- 99
2020-01-11 07:00:00 -1.5 3 Norte 5 Norte 0 -- -- 98
2020-01-11 06:00:00 -1.2 0 Calma 3 Sudoeste 0 -- -- 98
2020-01-11 05:00:00 -0.8 0 Calma 3 Sur 0 -- -- 96
2020-01-11 04:00:00 1.1 0 Calma 3 Oeste 0 -- -- 96
2020-01-11 03:00:00 1.9 0 Calma 5 Sur 0 -- -- 95
2020-01-11 02:00:00 3.1 0 Calma 11 Sur 0 -- -- 93
2020-01-11 01:00:00 4 9 Sudoeste 15 Sudoeste 0 -- -- 97
2020-01-11 00:00:00 3.7 4 Sur 10 Sur 0 -- -- 98
2020-01-10 23:00:00 3.3 0 Calma 5 Oeste 0 -- -- 97
2020-01-10 22:00:00 3.6 2 Noroeste 8 Oeste 0 -- -- 96
2020-01-10 21:00:00 5.1 0 Calma 4 Este 0 -- -- 95
2020-01-10 20:00:00 5.9 3 Este 4 Este 0 -- -- 93
2020-01-10 19:00:00 6.8 2 Sur 6 Este 0 -- -- 91
2020-01-10 18:00:00 7.6 6 Este 8 Este 0 -- -- 88
2020-01-10 17:00:00 9 3 Este 10 Este 0 -- -- 83
2020-01-10 16:00:00 9.3 4 Sudeste 9 Este 0 -- -- 83
2020-01-10 15:00:00 8.8 2 Este 8 Nordeste 0 -- -- 85
2020-01-10 14:00:00 6.7 2 Norte 6 Nordeste 0 -- -- 95
2020-01-10 13:00:00 5.9 0 Calma 8 Oeste 0 -- -- 98
2020-01-10 12:00:00 5.4 4 Oeste 10 Nordeste 0 -- -- 98
2020-01-10 11:00:00 4.9 7 Norte 15 Norte 0 -- -- 98
2020-01-10 10:00:00 4.6 5 Oeste 8 Oeste 0 -- -- 99
2020-01-10 09:00:00 4.3 3 Norte 10 Nordeste 0 -- -- 98
2020-01-10 08:00:00 4.6 5 Nordeste 8 Sur 0 -- -- 98
2020-01-10 07:00:00 4.5 4 Sudeste 14 Sur 0 -- -- 100
2020-01-10 06:00:00 4.4 6 Sur 13 Sudoeste 0.2 -- -- 100
2020-01-10 05:00:00 4.2 8 Sur 15 Sudoeste 0.8 -- -- 100
2020-01-10 04:00:00 4 3 Sur 17 Sudoeste 0 -- -- 100
2020-01-10 03:00:00 3.9 6 Sudoeste 14 Sudoeste 0 -- -- 100
2020-01-10 02:00:00 4.6 6 Oeste 10 Oeste 0 -- -- 100
2020-01-10 01:00:00 4.6 0 Calma 4 Nordeste 0.2 -- -- 100
2020-01-10 00:00:00 4.6 4 Noroeste 7 Noroeste 0 -- -- 100
2020-01-09 23:00:00 4.5 5 Noroeste 9 Noroeste 0 -- -- 100
2020-01-09 22:00:00 4.5 4 Noroeste 9 Noroeste 0 -- -- 100
2020-01-09 21:00:00 4.5 3 Oeste 5 Oeste 0 -- -- 100
2020-01-09 20:00:00 4.4 3 Nordeste 11 Este 0 -- -- 100
2020-01-09 19:00:00 4.6 4 Este 14 Noroeste 0 -- -- 100
2020-01-09 18:00:00 4.7 4 Noroeste 9 Noroeste 0 -- -- 100
2020-01-09 17:00:00 4.8 3 Nordeste 6 Nordeste 0 -- -- 100
2020-01-09 16:00:00 4.7 3 Sudeste 5 Sudeste 0 -- -- 100
2020-01-09 15:00:00 4.3 0 Calma 6 Oeste 0 -- -- 100
2020-01-09 14:00:00 4 5 Oeste 10 Oeste 0 -- -- 100
2020-01-09 13:00:00 3.7 0 Calma 4 Noroeste 0 -- -- 100
2020-01-09 12:00:00 3.6 0 Calma 5 Este 0 -- -- 100
2020-01-09 11:00:00 3 3 Noroeste 6 Oeste 0 -- -- 100
2020-01-09 10:00:00 2.8 4 Noroeste 6 Noroeste 0 -- -- 100
2020-01-09 09:00:00 2.7 0 Calma 5 Noroeste 0.2 -- -- 100
2020-01-09 08:00:00 2.6 3 Noroeste 6 Noroeste 0 -- -- 100
2020-01-09 07:00:00 2.7 4 Noroeste 11 Noroeste 0 -- -- 100
2020-01-09 06:00:00 2.9 3 Noroeste 5 Noroeste 0 -- -- 100
2020-01-09 05:00:00 2.9 3 Noroeste 6 Norte 0 -- -- 99
2020-01-09 04:00:00 3.1 2 Nordeste 6 Noroeste 0 -- -- 99
2020-01-09 03:00:00 3.2 2 Nordeste 6 Nordeste 0 -- -- 99
2020-01-09 02:00:00 3.4 3 Norte 5 Norte 0 -- -- 99
2020-01-09 01:00:00 3.6 3 Norte 4 Nordeste 0 -- -- 99
2020-01-09 00:00:00 3.7 0 Calma 5 Noroeste 0 -- -- 99
2020-01-08 23:00:00 3.7 2 Norte 4 Noroeste 0 -- -- 98
2020-01-08 22:00:00 3.8 0 Calma 5 Noroeste 0 -- -- 98
2020-01-08 21:00:00 3.8 2 Oeste 5 Oeste 0 -- -- 98
2020-01-08 20:00:00 3.8 0 Calma 8 Oeste 0 -- -- 98
2020-01-08 19:00:00 3.7 3 Oeste 6 Oeste 0 -- -- 97
2020-01-08 18:00:00 3.9 3 Nordeste 7 Nordeste 0 -- -- 96
2020-01-08 17:00:00 4.1 2 Noroeste 8 Oeste 0 -- -- 95
2020-01-08 16:00:00 4.4 3 Oeste 9 Oeste 0 -- -- 95
2020-01-08 15:00:00 4 3 Norte 11 Nordeste 0 -- -- 96
2020-01-08 14:00:00 3.8 4 Norte 13 Noroeste 0 -- -- 97
2020-01-08 13:00:00 3.1 5 Noroeste 9 Noroeste 0 -- -- 98
2020-01-08 12:00:00 2.7 2 Nordeste 16 Norte 0 -- -- 98
2020-01-08 11:00:00 2.5 8 Nordeste 12 Este 0 -- -- 98
2020-01-08 10:00:00 2.3 4 Nordeste 12 Nordeste 0 -- -- 98
2020-01-08 09:00:00 2.4 4 Este 14 Nordeste 0 -- -- 98
2020-01-08 08:00:00 2.5 3 Este 10 Nordeste 0 -- -- 98
2020-01-08 07:00:00 2.6 4 Norte 9 Nordeste 0 -- -- 98
2020-01-08 06:00:00 2.7 3 Norte 6 Noroeste 0 -- -- 98
2020-01-08 05:00:00 2.9 3 Norte 6 Norte 0 -- -- 98
2020-01-08 04:00:00 2.9 3 Noroeste 5 Noroeste 0 -- -- 97
2020-01-08 03:00:00 3 2 Norte 6 Norte 0 -- -- 97
2020-01-08 02:00:00 3 5 Norte 8 Norte 0 -- -- 96
2020-01-08 01:00:00 3.2 4 Nordeste 8 Nordeste 0 -- -- 96
2020-01-08 00:00:00 3.2 3 Norte 6 Noroeste 0 -- -- 96
2020-01-07 23:00:00 3.2 2 Oeste 6 Nordeste 0 -- -- 96
2020-01-07 22:00:00 3.2 4 Nordeste 12 Nordeste 0 -- -- 96
2020-01-07 21:00:00 3.2 6 Nordeste 12 Nordeste 0 -- -- 95
2020-01-07 20:00:00 3.4 8 Nordeste 11 Nordeste 0 -- -- 95
2020-01-07 19:00:00 3.7 7 Nordeste 14 Nordeste 0 -- -- 94
2020-01-07 18:00:00 3.6 6 Nordeste 10 Norte 0 -- -- 94
2020-01-07 17:00:00 3.6 5 Norte 10 Nordeste 0 -- -- 93
2020-01-07 16:00:00 3.8 5 Nordeste 12 Nordeste 0.2 -- -- 93
2020-01-07 15:00:00 3.7 5 Norte 8 Nordeste 0 -- -- 94
2020-01-07 14:00:00 3.4 4 Noroeste 10 Noroeste 0 -- -- 94
2020-01-07 13:00:00 3.1 6 Noroeste 11 Oeste 0 -- -- 94
2020-01-07 12:00:00 2.9 3 Noroeste 14 Oeste 0 -- -- 95
2020-01-07 11:00:00 2.8 6 Oeste 12 Oeste 0 -- -- 96
2020-01-07 10:00:00 2.7 4 Oeste 10 Sudoeste 0 -- -- 97
2020-01-07 09:00:00 2.8 6 Oeste 9 Oeste 0 -- -- 98
2020-01-07 08:00:00 2.8 0 Calma 7 Sur 0 -- -- 99
2020-01-07 07:00:00 2.8 0 Calma 4 Sur 0 -- -- 99
2020-01-07 06:00:00 2.7 2 Sur 5 Sudoeste 0 -- -- 99
2020-01-07 05:00:00 2.8 3 Sudoeste 5 Sudoeste 0 -- -- 99
2020-01-07 04:00:00 2.8 5 Sur 10 Sudeste 0 -- -- 99
2020-01-07 03:00:00 2.9 5 Sudeste 12 Sudeste 0 -- -- 98
2020-01-07 02:00:00 3 5 Sudeste 12 Sudeste 0 -- -- 98
2020-01-07 01:00:00 3.3 6 Sur 9 Sur 0 -- -- 98
2020-01-07 00:00:00 3.5 5 Sur 10 Sur 0 -- -- 98
2020-01-06 23:00:00 3.8 6 Sur 10 Sur 0 -- -- 98
2020-01-06 22:00:00 4.1 4 Sur 8 Sur 0 -- -- 98
2020-01-06 21:00:00 4.2 2 Sudoeste 7 Sudeste 0 -- -- 98
2020-01-06 20:00:00 4.4 3 Sur 8 Oeste 0 -- -- 97
2020-01-06 19:00:00 4.6 3 Sudoeste 9 Oeste 0 -- -- 96
2020-01-06 18:00:00 4.8 4 Sudoeste 10 Sudoeste 0 -- -- 96
2020-01-06 17:00:00 5 4 Sudeste 8 Sur 0 -- -- 96
2020-01-06 16:00:00 5.3 4 Sudeste 6 Sudeste 0 -- -- 94
2020-01-06 15:00:00 5 2 Noroeste 5 Oeste 0 -- -- 95
2020-01-06 14:00:00 4.2 3 Noroeste 6 Norte 0 -- -- 97
2020-01-06 13:00:00 3.6 3 Noroeste 6 Noroeste 0 -- -- 99
2020-01-06 12:00:00 2.8 2 Este 6 Sudoeste 0 -- -- 99
2020-01-06 11:00:00 2.7 0 Calma 5 Norte 0 -- -- 99
2020-01-06 10:00:00 2.2 0 Calma 8 Noroeste 0 -- -- 99